Time;durP1;ratioP1;P1;durP2;ratioP2;P2;SDS_P1;SDS_P2;PMS_P1;PMS_P2;Temp;Humidity;BMP_temperature;BMP_pressure;BME280_temperature;BME280_humidity;BME280_pressure;Samples;Min_cycle;Max_cycle;Signal;HPM_P1;HPM_P2
2021/09/03 00:01:38;0.00;0.00;0.62;0.00;0.00;0.62;6.20;5.60;;;26.80;34.20;;;;;;2265801;61;20419;-60
2021/09/03 00:04:23;0.00;0.00;0.62;0.00;0.00;0.62;6.63;6.03;;;26.70;34.20;;;;;;2265625;61;20422;-60
2021/09/03 00:07:10;0.00;0.00;0.62;0.00;0.00;0.62;6.50;5.90;;;26.70;34.20;;;;;;2264763;61;20471;-62
2021/09/03 00:09:56;0.00;0.00;0.62;0.00;0.00;0.62;6.10;5.60;;;26.70;34.20;;;;;;2265758;61;20430;-61
2021/09/03 00:12:41;0.00;0.00;0.62;0.00;0.00;0.62;7.47;6.67;;;26.70;34.20;;;;;;2265165;61;20487;-61
2021/09/03 00:15:26;0.00;0.00;0.62;0.00;0.00;0.62;6.67;5.97;;;26.70;34.20;;;;;;2264844;61;20389;-63
2021/09/03 00:18:11;0.00;0.00;0.62;0.00;0.00;0.62;7.33;6.43;;;26.70;34.20;;;;;;2265581;61;20403;-62
2021/09/03 00:20:56;0.00;0.00;0.62;0.00;0.00;0.62;8.37;5.23;;;26.70;34.30;;;;;;2265370;61;20668;-62
2021/09/03 00:23:42;0.00;0.00;0.62;0.00;0.00;0.62;6.03;5.53;;;26.70;34.30;;;;;;2265223;61;20356;-62
2021/09/03 00:26:27;0.00;0.00;0.62;0.00;0.00;0.62;6.37;5.77;;;26.60;34.30;;;;;;2265614;61;20760;-62
2021/09/03 00:29:12;0.00;0.00;0.62;0.00;0.00;0.62;6.70;6.03;;;26.70;34.30;;;;;;2264730;61;20380;-63
2021/09/03 00:31:56;0.00;0.00;0.62;0.00;0.00;0.62;5.93;5.33;;;26.60;34.30;;;;;;2265404;61;20396;-63
2021/09/03 00:34:41;0.00;0.00;0.62;0.00;0.00;0.62;6.97;5.93;;;26.60;34.30;;;;;;2265644;61;20368;-63
2021/09/03 00:37:26;0.00;0.00;0.62;0.00;0.00;0.62;8.10;6.10;;;26.60;34.30;;;;;;2264826;61;20384;-63
2021/09/03 00:40:12;0.00;0.00;0.62;0.00;0.00;0.62;6.43;5.73;;;26.60;34.30;;;;;;2265344;61;20383;-63
2021/09/03 00:42:57;0.00;0.00;0.62;0.00;0.00;0.62;7.97;6.00;;;26.60;34.30;;;;;;2265428;61;20504;-63
2021/09/03 00:45:41;0.00;0.00;0.62;0.00;0.00;0.62;5.67;5.17;;;26.60;34.30;;;;;;2265098;61;20621;-63
2021/09/03 00:48:26;0.00;0.00;0.62;0.00;0.00;0.62;5.90;5.23;;;26.60;34.30;;;;;;2266406;61;20403;-63
2021/09/03 00:51:10;0.00;0.00;0.62;0.00;0.00;0.62;9.10;5.87;;;26.60;34.30;;;;;;2265178;61;20772;-63
2021/09/03 00:53:54;0.00;0.00;0.62;0.00;0.00;0.62;6.43;5.83;;;26.50;34.30;;;;;;2266194;61;20365;-63
2021/09/03 00:56:40;0.00;0.00;0.62;0.00;0.00;0.62;6.27;5.67;;;26.60;34.40;;;;;;2266375;61;20379;-62
2021/09/03 00:59:25;0.00;0.00;0.62;0.00;0.00;0.62;6.90;6.20;;;26.60;34.30;;;;;;2265308;61;20361;-63
2021/09/03 01:02:09;0.00;0.00;0.62;0.00;0.00;0.62;6.70;6.00;;;26.50;34.20;;;;;;2266292;61;20380;-63
2021/09/03 01:04:53;0.00;0.00;0.62;0.00;0.00;0.62;7.00;5.70;;;26.50;34.20;;;;;;2265986;61;20400;-61
2021/09/03 01:07:39;0.00;0.00;0.62;0.00;0.00;0.62;7.73;6.27;;;26.50;34.20;;;;;;2265530;61;20564;-63
2021/09/03 01:10:24;0.00;0.00;0.62;0.00;0.00;0.62;7.90;6.60;;;26.50;34.20;;;;;;2266222;61;20389;-62
2021/09/03 01:13:10;0.00;0.00;0.62;0.00;0.00;0.62;6.67;5.50;;;26.50;34.30;;;;;;2265562;61;20381;-63
2021/09/03 01:15:54;0.00;0.00;0.62;0.00;0.00;0.62;5.97;5.07;;;26.50;34.30;;;;;;2266149;61;21044;-62
2021/09/03 01:18:39;0.00;0.00;0.62;0.00;0.00;0.62;6.60;5.70;;;26.50;34.30;;;;;;2266285;61;20356;-62
2021/09/03 01:21:24;0.00;0.00;0.62;0.00;0.00;0.62;5.40;4.90;;;26.50;34.30;;;;;;2264918;61;20373;-62
2021/09/03 01:24:09;0.00;0.00;0.62;0.00;0.00;0.62;6.73;6.03;;;26.50;34.30;;;;;;2266223;61;20352;-61
2021/09/03 01:26:54;0.00;0.00;0.62;0.00;0.00;0.62;7.00;6.10;;;26.50;35.00;;;;;;2266232;61;20753;-60
2021/09/03 01:29:39;0.00;0.00;0.62;0.00;0.00;0.62;8.10;6.10;;;26.50;34.30;;;;;;2265182;61;20384;-63
2021/09/03 01:32:24;0.00;0.00;0.62;0.00;0.00;0.62;6.27;5.60;;;26.50;34.30;;;;;;2266110;61;20418;-60
2021/09/03 01:35:10;0.00;0.00;0.62;0.00;0.00;0.62;6.43;5.30;;;26.40;34.20;;;;;;2265188;61;20712;-63
2021/09/03 01:37:55;0.00;0.00;0.62;0.00;0.00;0.62;6.80;6.07;;;26.40;34.20;;;;;;2266165;61;20404;-63
2021/09/03 01:40:41;0.00;0.00;0.62;0.00;0.00;0.62;5.83;5.20;;;26.40;34.20;;;;;;2266018;61;20353;-63
2021/09/03 01:43:25;0.00;0.00;0.62;0.00;0.00;0.62;5.80;5.07;;;26.40;34.30;;;;;;2265130;61;20361;-62
2021/09/03 01:46:10;0.00;0.00;0.62;0.00;0.00;0.62;7.90;6.80;;;26.40;34.20;;;;;;2266145;61;20385;-62
2021/09/03 01:48:54;0.00;0.00;0.62;0.00;0.00;0.62;6.40;5.80;;;26.40;34.20;;;;;;2266135;61;20758;-62
2021/09/03 01:51:39;0.00;0.00;0.62;0.00;0.00;0.62;6.47;5.77;;;26.40;34.10;;;;;;2264915;61;20453;-63
2021/09/03 01:54:23;0.00;0.00;0.62;0.00;0.00;0.62;6.37;5.77;;;26.30;34.10;;;;;;2266251;61;20376;-63
2021/09/03 01:57:09;0.00;0.00;0.62;0.00;0.00;0.62;8.50;6.77;;;26.40;34.10;;;;;;2265675;61;20357;-62
2021/09/03 01:59:53;0.00;0.00;0.62;0.00;0.00;0.62;6.97;6.37;;;26.30;34.10;;;;;;2265664;61;20623;-61
2021/09/03 02:02:38;0.00;0.00;0.62;0.00;0.00;0.62;6.10;5.50;;;26.30;34.00;;;;;;2266191;61;20399;-62
2021/09/03 02:05:23;0.00;0.00;0.62;0.00;0.00;0.62;5.90;5.30;;;26.30;34.00;;;;;;2264843;61;20360;-62
2021/09/03 02:08:07;0.00;0.00;0.62;0.00;0.00;0.62;6.30;5.57;;;26.30;34.10;;;;;;2266246;61;20354;-62
2021/09/03 02:10:52;0.00;0.00;0.62;0.00;0.00;0.62;5.77;5.20;;;26.30;34.00;;;;;;2265874;61;20768;-62
2021/09/03 02:13:38;0.00;0.00;0.62;0.00;0.00;0.62;5.90;5.37;;;26.30;34.00;;;;;;2265056;61;20751;-62
2021/09/03 02:16:22;0.00;0.00;0.62;0.00;0.00;0.62;7.10;6.27;;;26.30;34.00;;;;;;2266056;61;20469;-62
2021/09/03 02:19:07;0.00;0.00;0.62;0.00;0.00;0.62;6.50;5.77;;;26.30;34.00;;;;;;2265566;61;20748;-61
2021/09/03 02:21:51;0.00;0.00;0.62;0.00;0.00;0.62;7.27;5.50;;;26.30;34.00;;;;;;2265449;61;20729;-63
2021/09/03 02:24:37;0.00;0.00;0.62;0.00;0.00;0.62;6.27;5.67;;;26.30;34.00;;;;;;2266149;61;20458;-61
2021/09/03 02:27:22;0.00;0.00;0.62;0.00;0.00;0.62;6.17;5.23;;;26.20;34.00;;;;;;2264923;61;20377;-61
2021/09/03 02:30:09;0.00;0.00;0.62;0.00;0.00;0.62;7.83;5.37;;;26.20;34.00;;;;;;2265998;61;20795;-61
2021/09/03 02:32:54;0.00;0.00;0.62;0.00;0.00;0.62;6.77;5.43;;;26.20;34.00;;;;;;2265749;61;20595;-62
2021/09/03 02:35:39;0.00;0.00;0.62;0.00;0.00;0.62;6.63;4.97;;;26.20;34.00;;;;;;2265024;61;20357;-62
2021/09/03 02:38:24;0.00;0.00;0.62;0.00;0.00;0.62;5.20;4.70;;;26.20;34.10;;;;;;2266184;61;20415;-62
2021/09/03 02:41:09;0.00;0.00;0.62;0.00;0.00;0.62;6.43;4.80;;;26.20;34.10;;;;;;2265048;61;20373;-62
2021/09/03 02:43:53;0.00;0.00;0.62;0.00;0.00;0.62;5.50;4.90;;;26.20;34.10;;;;;;2265374;61;20402;-62
2021/09/03 02:46:39;0.00;0.00;0.62;0.00;0.00;0.62;5.77;5.17;;;26.20;34.10;;;;;;2265762;61;20393;-61
2021/09/03 02:49:23;0.00;0.00;0.62;0.00;0.00;0.62;5.73;5.10;;;26.20;34.10;;;;;;2265280;61;20381;-62
2021/09/03 02:52:08;0.00;0.00;0.62;0.00;0.00;0.62;6.70;5.77;;;26.20;34.10;;;;;;2265895;61;20536;-60
2021/09/03 02:54:53;0.00;0.00;0.62;0.00;0.00;0.62;5.30;4.80;;;26.20;34.20;;;;;;2265819;61;20407;-62
2021/09/03 02:57:38;0.00;0.00;0.62;0.00;0.00;0.62;5.77;5.07;;;26.10;34.20;;;;;;2264892;61;20583;-63
2021/09/03 03:00:23;0.00;0.00;0.62;0.00;0.00;0.62;6.20;5.57;;;26.10;34.20;;;;;;2265778;61;20756;-63
2021/09/03 03:03:09;0.00;0.00;0.62;0.00;0.00;0.62;5.73;5.13;;;26.10;34.20;;;;;;2265561;61;20353;-62
2021/09/03 03:05:54;0.00;0.00;0.62;0.00;0.00;0.62;6.07;5.50;;;26.10;34.10;;;;;;2265166;61;20364;-62
2021/09/03 03:08:38;0.00;0.00;0.62;0.00;0.00;0.62;5.50;5.00;;;26.10;34.10;;;;;;2265630;61;20433;-63
2021/09/03 03:11:23;0.00;0.00;0.62;0.00;0.00;0.62;5.60;5.00;;;26.10;34.10;;;;;;2265312;61;20381;-64
2021/09/03 03:14:14;0.00;0.00;0.62;0.00;0.00;0.62;5.43;4.90;;;26.00;34.00;;;;;;2265893;61;20356;-63
2021/09/03 03:17:00;0.00;0.00;0.62;0.00;0.00;0.62;5.33;4.83;;;26.00;34.00;;;;;;2265814;61;20611;-60
2021/09/03 03:19:46;0.00;0.00;0.62;0.00;0.00;0.62;6.30;5.70;;;26.00;34.00;;;;;;2264721;61;20556;-61
2021/09/03 03:22:31;0.00;0.00;0.62;0.00;0.00;0.62;6.20;5.60;;;26.00;34.10;;;;;;2265785;61;20606;-61
2021/09/03 03:25:15;0.00;0.00;0.62;0.00;0.00;0.62;6.07;5.47;;;26.00;34.00;;;;;;2265912;61;20371;-63
2021/09/03 03:28:00;0.00;0.00;0.62;0.00;0.00;0.62;5.80;5.20;;;26.00;34.00;;;;;;2265032;61;20593;-63
2021/09/03 03:30:44;0.00;0.00;0.62;0.00;0.00;0.62;5.23;4.73;;;26.00;34.00;;;;;;2265636;61;20389;-62
2021/09/03 03:33:29;0.00;0.00;0.62;0.00;0.00;0.62;5.87;5.33;;;26.00;34.00;;;;;;2265529;61;20388;-61
2021/09/03 03:36:15;0.00;0.00;0.62;0.00;0.00;0.62;7.07;5.67;;;26.00;34.00;;;;;;2265611;61;20476;-63
2021/09/03 03:38:59;0.00;0.00;0.62;0.00;0.00;0.62;6.47;5.83;;;25.90;34.00;;;;;;2265889;61;20368;-62
2021/09/03 03:41:44;0.00;0.00;0.62;0.00;0.00;0.62;5.73;5.13;;;25.90;34.00;;;;;;2264560;61;20729;-62
2021/09/03 03:44:28;0.00;0.00;0.62;0.00;0.00;0.62;6.00;5.23;;;25.90;34.00;;;;;;2265757;61;20388;-63
2021/09/03 03:47:13;0.00;0.00;0.62;0.00;0.00;0.62;6.00;5.40;;;25.90;34.00;;;;;;2265896;61;20364;-62
2021/09/03 03:49:57;0.00;0.00;0.62;0.00;0.00;0.62;5.67;5.13;;;25.90;34.00;;;;;;2264526;61;20415;-63
2021/09/03 03:52:43;0.00;0.00;0.62;0.00;0.00;0.62;5.97;5.00;;;25.90;34.00;;;;;;2265695;61;20377;-62
2021/09/03 03:55:28;0.00;0.00;0.62;0.00;0.00;0.62;5.87;5.37;;;25.80;33.90;;;;;;2265466;61;20357;-62
2021/09/03 03:58:12;0.00;0.00;0.62;0.00;0.00;0.62;7.67;6.17;;;25.80;33.90;;;;;;2265065;61;20608;-62
2021/09/03 04:00:57;0.00;0.00;0.62;0.00;0.00;0.62;5.37;4.87;;;25.80;33.90;;;;;;2265724;61;20422;-62
2021/09/03 04:03:42;0.00;0.00;0.62;0.00;0.00;0.62;6.10;5.30;;;25.80;33.90;;;;;;2264774;61;20437;-63
2021/09/03 04:06:26;0.00;0.00;0.62;0.00;0.00;0.62;5.30;4.80;;;25.80;33.90;;;;;;2265568;61;20580;-62
2021/09/03 04:09:12;0.00;0.00;0.62;0.00;0.00;0.62;6.28;5.40;;;25.80;33.90;;;;;;2265177;61;20770;-63
2021/09/03 04:11:57;0.00;0.00;0.62;0.00;0.00;0.62;6.70;5.37;;;25.80;34.00;;;;;;2264469;61;20276;-62
2021/09/03 04:14:41;0.00;0.00;0.62;0.00;0.00;0.62;5.10;4.37;;;25.80;33.90;;;;;;2265750;61;20357;-62
2021/09/03 04:17:26;0.00;0.00;0.62;0.00;0.00;0.62;5.00;4.50;;;25.80;33.90;;;;;;2265449;61;20384;-62
2021/09/03 04:20:11;0.00;0.00;0.62;0.00;0.00;0.62;4.93;4.53;;;25.80;33.80;;;;;;2265144;61;20445;-62
2021/09/03 04:22:56;0.00;0.00;0.62;0.00;0.00;0.62;4.93;4.43;;;25.80;33.70;;;;;;2266532;61;20779;-62
2021/09/03 04:25:42;0.00;0.00;0.62;0.00;0.00;0.62;5.20;4.47;;;25.80;33.60;;;;;;2265242;61;20357;-62
2021/09/03 04:28:26;0.00;0.00;0.62;0.00;0.00;0.62;5.43;4.47;;;25.70;33.60;;;;;;2266405;61;20372;-62
2021/09/03 04:31:11;0.00;0.00;0.62;0.00;0.00;0.62;4.90;3.83;;;25.70;33.60;;;;;;2266220;61;20424;-62
2021/09/03 04:33:56;0.00;0.00;0.62;0.00;0.00;0.62;4.50;3.63;;;25.70;33.70;;;;;;2265232;61;20650;-62
2021/09/03 04:36:40;0.00;0.00;0.62;0.00;0.00;0.62;4.80;4.00;;;25.60;33.70;;;;;;2266422;61;20437;-62
2021/09/03 04:39:25;0.00;0.00;0.62;0.00;0.00;0.62;4.53;4.13;;;25.60;33.70;;;;;;2266151;61;20569;-62
2021/09/03 04:42:11;0.00;0.00;0.62;0.00;0.00;0.62;4.63;4.17;;;25.60;33.70;;;;;;2265518;61;20373;-62
2021/09/03 04:44:55;0.00;0.00;0.62;0.00;0.00;0.62;4.60;3.80;;;25.60;33.80;;;;;;2266474;61;20796;-62
2021/09/03 04:47:40;0.00;0.00;0.62;0.00;0.00;0.62;4.83;4.20;;;25.60;33.80;;;;;;2265769;61;20442;-62
2021/09/03 04:50:25;0.00;0.00;0.62;0.00;0.00;0.62;5.53;4.17;;;25.60;33.80;;;;;;2266419;61;20373;-62
2021/09/03 04:53:09;0.00;0.00;0.62;0.00;0.00;0.62;4.20;3.80;;;25.60;33.50;;;;;;2266304;61;20559;-62
2021/09/03 04:55:56;0.00;0.00;0.62;0.00;0.00;0.62;5.83;4.37;;;25.50;33.40;;;;;;2265073;61;20364;-61
2021/09/03 04:58:42;0.00;0.00;0.62;0.00;0.00;0.62;6.47;4.77;;;25.50;33.40;;;;;;2266264;61;20363;-61
2021/09/03 05:01:26;0.00;0.00;0.62;0.00;0.00;0.62;4.37;3.93;;;25.40;33.20;;;;;;2265770;61;20585;-61
2021/09/03 05:04:10;0.00;0.00;0.62;0.00;0.00;0.62;4.60;4.20;;;25.40;33.40;;;;;;2265518;61;20384;-62
2021/09/03 05:06:55;0.00;0.00;0.62;0.00;0.00;0.62;3.80;3.50;;;25.40;33.50;;;;;;2266231;61;20361;-62
2021/09/03 05:09:39;0.00;0.00;0.62;0.00;0.00;0.62;4.30;3.20;;;25.30;33.50;;;;;;2265738;61;20756;-62
2021/09/03 05:12:24;0.00;0.00;0.62;0.00;0.00;0.62;3.67;3.33;;;25.30;33.60;;;;;;2266084;61;20377;-62
2021/09/03 05:15:13;0.00;0.00;0.62;0.00;0.00;0.62;4.20;3.33;;;25.30;33.60;;;;;;2266234;61;20364;-62
2021/09/03 05:17:57;0.00;0.00;0.62;0.00;0.00;0.62;4.40;3.60;;;25.30;33.70;;;;;;2265213;61;20701;-62
2021/09/03 05:20:42;0.00;0.00;0.62;0.00;0.00;0.62;5.73;4.70;;;25.30;33.60;;;;;;2266179;61;20361;-63
2021/09/03 05:23:27;0.00;0.00;0.62;0.00;0.00;0.62;4.23;3.83;;;25.30;33.40;;;;;;2266124;61;20372;-63
2021/09/03 05:26:11;0.00;0.00;0.62;0.00;0.00;0.62;5.50;4.20;;;25.20;33.30;;;;;;2265265;61;20457;-62
2021/09/03 05:28:56;0.00;0.00;0.62;0.00;0.00;0.62;4.20;3.70;;;25.20;33.30;;;;;;2266233;61;20361;-62
2021/09/03 05:31:42;0.00;0.00;0.62;0.00;0.00;0.62;5.50;4.13;;;25.20;33.40;;;;;;2265560;61;20404;-62
2021/09/03 05:34:26;0.00;0.00;0.62;0.00;0.00;0.62;5.33;4.43;;;25.10;33.30;;;;;;2265910;61;20361;-62
2021/09/03 05:37:11;0.00;0.00;0.62;0.00;0.00;0.62;5.07;3.90;;;25.10;33.40;;;;;;2266118;61;20407;-62
2021/09/03 05:39:58;0.00;0.00;0.62;0.00;0.00;0.62;3.90;3.20;;;25.00;33.40;;;;;;2264979;61;20421;-62
2021/09/03 05:42:43;0.00;0.00;0.62;0.00;0.00;0.62;5.47;4.87;;;25.00;33.60;;;;;;2266199;61;20400;-61
2021/09/03 05:45:28;0.00;0.00;0.62;0.00;0.00;0.62;5.60;4.83;;;25.00;33.60;;;;;;2265878;61;20566;-61
2021/09/03 05:48:14;0.00;0.00;0.62;0.00;0.00;0.62;4.53;4.13;;;25.00;33.60;;;;;;2265244;61;20365;-62
2021/09/03 05:50:58;0.00;0.00;0.62;0.00;0.00;0.62;5.47;4.13;;;25.00;33.50;;;;;;2265962;61;20393;-62
2021/09/03 05:53:43;0.00;0.00;0.62;0.00;0.00;0.62;4.87;4.47;;;24.90;33.40;;;;;;2265906;61;20373;-62
2021/09/03 05:56:27;0.00;0.00;0.62;0.00;0.00;0.62;5.13;4.63;;;24.80;33.30;;;;;;2265471;61;20389;-62
2021/09/03 05:59:12;0.00;0.00;0.62;0.00;0.00;0.62;4.63;4.10;;;24.80;33.40;;;;;;2265953;61;20365;-62
2021/09/03 06:01:56;0.00;0.00;0.62;0.00;0.00;0.62;4.20;3.80;;;24.80;33.70;;;;;;2265070;61;20455;-62
2021/09/03 06:04:41;0.00;0.00;0.62;0.00;0.00;0.62;4.73;4.33;;;24.70;33.70;;;;;;2265985;61;20768;-62
2021/09/03 06:07:26;0.00;0.00;0.62;0.00;0.00;0.62;4.00;3.33;;;24.70;33.80;;;;;;2266004;61;20477;-62
2021/09/03 06:10:12;0.00;0.00;0.62;0.00;0.00;0.62;4.37;3.97;;;24.70;33.90;;;;;;2264969;61;20417;-62
2021/09/03 06:12:57;0.00;0.00;0.62;0.00;0.00;0.62;4.60;4.13;;;24.70;34.00;;;;;;2265870;61;20381;-62
2021/09/03 06:15:41;0.00;0.00;0.62;0.00;0.00;0.62;4.57;4.17;;;24.70;33.90;;;;;;2265682;61;20411;-61
2021/09/03 06:18:26;0.00;0.00;0.62;0.00;0.00;0.62;4.80;4.20;;;24.70;34.00;;;;;;2265267;61;20361;-61
2021/09/03 06:21:12;0.00;0.00;0.62;0.00;0.00;0.62;4.77;4.27;;;24.70;34.00;;;;;;2265833;61;20465;-62
2021/09/03 06:23:58;0.00;0.00;0.62;0.00;0.00;0.62;4.33;3.70;;;24.80;34.10;;;;;;2265394;61;20361;-60
2021/09/03 06:26:42;0.00;0.00;0.62;0.00;0.00;0.62;4.47;3.80;;;24.80;34.10;;;;;;2266001;61;20361;-60
2021/09/03 06:29:43;0.00;0.00;0.62;0.00;0.00;0.62;5.30;4.03;;;24.80;34.30;;;;;;2266040;61;20615;-62
2021/09/03 06:32:29;0.00;0.00;0.62;0.00;0.00;0.62;4.97;3.57;;;24.90;34.40;;;;;;2264946;61;20401;-62
2021/09/03 06:35:14;0.00;0.00;0.62;0.00;0.00;0.62;4.50;3.50;;;24.90;34.40;;;;;;2265898;61;20709;-62
2021/09/03 06:37:59;0.00;0.00;0.62;0.00;0.00;0.62;4.47;3.87;;;24.90;34.40;;;;;;2265819;61;20401;-65
2021/09/03 06:40:44;0.00;0.00;0.62;0.00;0.00;0.62;4.27;3.87;;;24.90;34.40;;;;;;2265117;61;20356;-62
2021/09/03 06:43:28;0.00;0.00;0.62;0.00;0.00;0.62;4.17;3.77;;;25.00;34.50;;;;;;2265833;61;20361;-62
2021/09/03 06:46:13;0.00;0.00;0.62;0.00;0.00;0.62;4.23;3.83;;;25.00;34.40;;;;;;2264988;61;20751;-62
2021/09/03 06:48:59;0.00;0.00;0.62;0.00;0.00;0.62;4.70;3.90;;;25.00;34.50;;;;;;2265812;61;20580;-61
2021/09/03 06:51:43;0.00;0.00;0.62;0.00;0.00;0.62;4.30;3.90;;;25.00;34.50;;;;;;2265875;61;20396;-61
2021/09/03 06:54:31;0.00;0.00;0.62;0.00;0.00;0.62;3.93;3.53;;;25.00;34.50;;;;;;2264839;61;20452;-60
2021/09/03 06:57:15;0.00;0.00;0.62;0.00;0.00;0.62;4.20;3.80;;;25.10;34.50;;;;;;2265831;61;20353;-64
2021/09/03 07:00:00;0.00;0.00;0.62;0.00;0.00;0.62;4.10;3.70;;;25.10;34.60;;;;;;2265930;61;20460;-63
2021/09/03 07:02:44;0.00;0.00;0.62;0.00;0.00;0.62;4.40;2.93;;;25.10;34.50;;;;;;2264943;61;20564;-62
2021/09/03 07:05:29;0.00;0.00;0.62;0.00;0.00;0.62;4.20;3.83;;;25.20;34.60;;;;;;2265990;61;20369;-63
2021/09/03 07:08:13;0.00;0.00;0.62;0.00;0.00;0.62;4.83;3.60;;;25.20;34.60;;;;;;2265549;61;20364;-63
2021/09/03 07:10:59;0.00;0.00;0.62;0.00;0.00;0.62;3.80;3.47;;;25.20;34.50;;;;;;2265897;61;20424;-61
2021/09/03 07:13:43;0.00;0.00;0.62;0.00;0.00;0.62;3.77;3.30;;;25.20;34.60;;;;;;2265990;61;20349;-62
2021/09/03 07:16:28;0.00;0.00;0.62;0.00;0.00;0.62;5.70;4.37;;;25.20;34.60;;;;;;2264765;61;20438;-63
2021/09/03 07:19:13;0.00;0.00;0.62;0.00;0.00;0.62;4.50;4.10;;;25.20;34.60;;;;;;2265934;61;20411;-63
2021/09/03 07:21:58;0.00;0.00;0.62;0.00;0.00;0.62;4.30;3.90;;;25.30;34.70;;;;;;2265783;61;20423;-61
2021/09/03 07:24:42;0.00;0.00;0.62;0.00;0.00;0.62;4.20;3.80;;;25.30;34.60;;;;;;2264864;61;20345;-61
2021/09/03 07:27:28;0.00;0.00;0.62;0.00;0.00;0.62;5.00;4.40;;;25.30;34.70;;;;;;2266056;61;20439;-62
2021/09/03 07:30:13;0.00;0.00;0.62;0.00;0.00;0.62;5.10;4.60;;;25.40;34.70;;;;;;2265459;61;20491;-61
2021/09/03 07:32:57;0.00;0.00;0.62;0.00;0.00;0.62;3.93;3.53;;;25.40;34.70;;;;;;2264955;61;20776;-61
2021/09/03 07:35:42;0.00;0.00;0.62;0.00;0.00;0.62;4.50;3.97;;;25.40;34.70;;;;;;2265779;61;20740;-64
2021/09/03 07:38:28;0.00;0.00;0.62;0.00;0.00;0.62;5.40;4.17;;;25.40;34.70;;;;;;2264647;61;20578;-60
2021/09/03 07:41:13;0.00;0.00;0.62;0.00;0.00;0.62;5.07;4.57;;;25.40;34.70;;;;;;2265710;61;20601;-60
2021/09/03 07:43:59;0.00;0.00;0.62;0.00;0.00;0.62;5.40;4.33;;;25.50;34.80;;;;;;2265858;61;20377;-63
2021/09/03 07:46:44;0.00;0.00;0.62;0.00;0.00;0.62;4.83;4.43;;;25.50;34.80;;;;;;2264782;61;20451;-60
2021/09/03 07:49:28;0.00;0.00;0.62;0.00;0.00;0.62;5.80;4.63;;;25.50;34.80;;;;;;2265798;61;20393;-62
2021/09/03 07:52:13;0.00;0.00;0.62;0.00;0.00;0.62;4.70;4.20;;;25.50;34.80;;;;;;2265464;61;20411;-64
2021/09/03 07:54:57;0.00;0.00;0.62;0.00;0.00;0.62;5.00;4.50;;;25.60;34.90;;;;;;2265285;61;20445;-62
2021/09/03 07:57:42;0.00;0.00;0.62;0.00;0.00;0.62;5.27;4.77;;;25.60;34.80;;;;;;2265732;61;20423;-61
2021/09/03 08:00:28;0.00;0.00;0.62;0.00;0.00;0.62;5.10;4.60;;;25.60;34.80;;;;;;2264650;61;20380;-62
2021/09/03 08:03:13;0.00;0.00;0.62;0.00;0.00;0.62;5.53;4.40;;;25.60;34.80;;;;;;2265827;61;20440;-61
2021/09/03 08:05:57;0.00;0.00;0.62;0.00;0.00;0.62;7.93;4.30;;;25.60;34.80;;;;;;2265692;61;20428;-60
2021/09/03 08:08:42;0.00;0.00;0.62;0.00;0.00;0.62;5.87;5.30;;;25.70;34.90;;;;;;2264718;61;20356;-60
2021/09/03 08:11:26;0.00;0.00;0.62;0.00;0.00;0.62;5.53;4.67;;;25.70;34.80;;;;;;2265614;61;20660;-64
2021/09/03 08:14:11;0.00;0.00;0.62;0.00;0.00;0.62;5.20;4.70;;;25.70;34.80;;;;;;2265479;61;20404;-60
2021/09/03 08:16:56;0.00;0.00;0.62;0.00;0.00;0.62;4.67;4.17;;;25.70;34.80;;;;;;2265137;61;20469;-62
2021/09/03 08:19:42;0.00;0.00;0.62;0.00;0.00;0.62;5.13;4.73;;;25.80;34.80;;;;;;2265590;61;20353;-63
2021/09/03 08:22:27;0.00;0.00;0.62;0.00;0.00;0.62;5.03;4.50;;;25.80;34.80;;;;;;2264823;61;20761;-61
2021/09/03 08:25:11;0.00;0.00;0.62;0.00;0.00;0.62;4.57;4.10;;;25.80;34.80;;;;;;2265723;61;20381;-61
2021/09/03 08:27:56;0.00;0.00;0.62;0.00;0.00;0.62;4.50;4.10;;;25.80;34.80;;;;;;2265682;61;20420;-62
2021/09/03 08:30:41;0.00;0.00;0.62;0.00;0.00;0.62;4.93;4.00;;;25.90;34.90;;;;;;2264571;61;20412;-60
2021/09/03 08:33:27;0.00;0.00;0.62;0.00;0.00;0.62;4.93;4.40;;;25.90;34.90;;;;;;2265632;61;20344;-63
2021/09/03 08:36:11;0.00;0.00;0.62;0.00;0.00;0.62;5.80;4.97;;;25.90;34.80;;;;;;2265481;61;20716;-61
2021/09/03 08:38:56;0.00;0.00;0.62;0.00;0.00;0.62;5.20;4.50;;;25.90;34.80;;;;;;2264851;61;20433;-61
2021/09/03 08:41:42;0.00;0.00;0.62;0.00;0.00;0.62;4.80;4.40;;;25.90;34.80;;;;;;2265454;61;20411;-61
2021/09/03 08:44:29;0.00;0.00;0.62;0.00;0.00;0.62;5.00;4.50;;;26.00;34.90;;;;;;2265253;61;20360;-62
2021/09/03 08:47:14;0.00;0.00;0.62;0.00;0.00;0.62;5.20;4.37;;;26.00;34.90;;;;;;2265687;61;20415;-65
2021/09/03 08:50:00;0.00;0.00;0.62;0.00;0.00;0.62;4.70;4.30;;;26.00;34.90;;;;;;2265372;61;20381;-63
2021/09/03 08:52:49;0.00;0.00;0.62;0.00;0.00;0.62;4.53;4.13;;;26.10;35.00;;;;;;2264537;61;20404;-61
2021/09/03 08:55:33;0.00;0.00;0.62;0.00;0.00;0.62;4.97;4.47;;;26.00;34.80;;;;;;2265633;61;20353;-64
2021/09/03 08:58:19;0.00;0.00;0.62;0.00;0.00;0.62;4.90;4.50;;;26.10;35.00;;;;;;2265596;61;20408;-60
2021/09/03 09:01:07;0.00;0.00;0.62;0.00;0.00;0.62;5.03;4.57;;;26.10;34.90;;;;;;2264858;61;20404;-61
2021/09/03 09:03:52;0.00;0.00;0.62;0.00;0.00;0.62;4.33;3.97;;;26.20;35.00;;;;;;2265958;61;20353;-63
2021/09/03 09:06:38;0.00;0.00;0.62;0.00;0.00;0.62;5.07;3.97;;;26.20;35.00;;;;;;2265339;61;20720;-63
2021/09/03 09:09:32;0.00;0.00;0.62;0.00;0.00;0.62;5.83;5.10;;;26.20;35.00;;;;;;2266434;61;20369;-62
2021/09/03 09:12:18;0.00;0.00;0.62;0.00;0.00;0.62;5.23;4.63;;;26.20;35.00;;;;;;2266162;61;20385;-62
2021/09/03 09:15:07;0.00;0.00;0.62;0.00;0.00;0.62;5.27;4.77;;;26.30;35.00;;;;;;2265161;61;20364;-63
2021/09/03 09:17:52;0.00;0.00;0.62;0.00;0.00;0.62;5.53;4.83;;;26.30;35.10;;;;;;2266125;61;20737;-63
2021/09/03 09:20:37;0.00;0.00;0.62;0.00;0.00;0.62;6.10;5.30;;;26.30;35.10;;;;;;2266004;61;20395;-59
2021/09/03 09:23:39;0.00;0.00;0.62;0.00;0.00;0.62;4.67;4.23;;;26.30;35.10;;;;;;2265555;61;20388;-62
2021/09/03 09:26:41;0.00;0.00;0.62;0.00;0.00;0.62;5.33;4.83;;;26.30;35.00;;;;;;2266048;61;20584;-65
2021/09/03 09:29:28;0.00;0.00;0.62;0.00;0.00;0.62;6.30;5.00;;;26.40;35.10;;;;;;2265107;61;20380;-61
2021/09/03 09:32:13;0.00;0.00;0.62;0.00;0.00;0.62;5.43;4.93;;;26.40;35.10;;;;;;2266147;61;20589;-63
2021/09/03 09:34:58;0.00;0.00;0.62;0.00;0.00;0.62;5.80;4.90;;;26.40;35.10;;;;;;2266204;61;20412;-64
2021/09/03 09:37:52;0.00;0.00;0.62;0.00;0.00;0.62;6.93;5.93;;;26.50;35.10;;;;;;2265203;61;20384;-61
2021/09/03 09:40:48;0.00;0.00;0.62;0.00;0.00;0.62;6.07;5.23;;;26.50;35.10;;;;;;2265836;61;20352;-63
2021/09/03 09:43:37;0.00;0.00;0.62;0.00;0.00;0.62;8.40;4.43;;;26.50;35.10;;;;;;2265809;61;20473;-64
2021/09/03 09:46:24;0.00;0.00;0.62;0.00;0.00;0.62;6.67;4.97;;;26.50;35.10;;;;;;2266133;61;20373;-63
2021/09/03 09:49:13;0.00;0.00;0.62;0.00;0.00;0.62;5.83;5.30;;;26.60;35.10;;;;;;2266227;61;20360;-65
2021/09/03 09:51:57;0.00;0.00;0.62;0.00;0.00;0.62;8.07;5.53;;;26.60;35.10;;;;;;2265114;61;20602;-64
2021/09/03 09:54:43;0.00;0.00;0.62;0.00;0.00;0.62;5.03;4.50;;;26.60;35.10;;;;;;2266083;61;20353;-62
2021/09/03 09:57:33;0.00;0.00;0.62;0.00;0.00;0.62;4.87;4.20;;;26.70;35.10;;;;;;2266160;61;20397;-63
2021/09/03 10:00:18;0.00;0.00;0.62;0.00;0.00;0.62;6.13;5.53;;;26.70;35.00;;;;;;2265286;61;20361;-62
2021/09/03 10:03:03;0.00;0.00;0.62;0.00;0.00;0.62;5.53;5.00;;;26.70;35.00;;;;;;2266113;61;20350;-62
2021/09/03 10:05:48;0.00;0.00;0.62;0.00;0.00;0.62;6.30;5.70;;;26.80;35.00;;;;;;2265626;61;20380;-61
2021/09/03 10:08:32;0.00;0.00;0.62;0.00;0.00;0.62;11.07;7.40;;;26.80;35.00;;;;;;2266120;61;20364;-61
2021/09/03 10:11:18;0.00;0.00;0.62;0.00;0.00;0.62;9.37;5.30;;;26.80;35.00;;;;;;2265865;61;20716;-62
2021/09/03 10:14:06;0.00;0.00;0.62;0.00;0.00;0.62;7.90;5.67;;;26.80;35.00;;;;;;2265038;61;20389;-62
2021/09/03 10:16:52;0.00;0.00;0.62;0.00;0.00;0.62;7.40;6.70;;;26.80;34.90;;;;;;2265971;61;20380;-62
2021/09/03 10:19:40;0.00;0.00;0.62;0.00;0.00;0.62;7.93;6.00;;;26.90;35.00;;;;;;2265934;61;20434;-62
2021/09/03 10:22:26;0.00;0.00;0.62;0.00;0.00;0.62;7.17;6.47;;;26.90;34.90;;;;;;2265241;61;20419;-62
2021/09/03 10:25:12;0.00;0.00;0.62;0.00;0.00;0.62;8.27;7.47;;;26.90;35.00;;;;;;2266017;61;20400;-62
2021/09/03 10:28:06;0.00;0.00;0.62;0.00;0.00;0.62;9.83;6.60;;;27.00;35.00;;;;;;2265640;61;20365;-63
2021/09/03 10:31:04;0.00;0.00;0.62;0.00;0.00;0.62;6.17;5.57;;;26.90;35.00;;;;;;2265828;61;20381;-62
2021/09/03 10:33:48;0.00;0.00;0.62;0.00;0.00;0.62;8.43;6.70;;;27.00;35.00;;;;;;2266027;61;20361;-60
2021/09/03 10:36:56;0.00;0.00;0.62;0.00;0.00;0.62;8.47;5.70;;;27.00;35.00;;;;;;2264752;61;20414;-61
2021/09/03 10:39:42;0.00;0.00;0.62;0.00;0.00;0.62;7.67;6.93;;;27.00;35.00;;;;;;2265752;61;20373;-62
2021/09/03 10:42:56;0.00;0.00;0.62;0.00;0.00;0.62;7.07;5.70;;;27.00;35.00;;;;;;2265729;61;20377;-62
2021/09/03 10:45:44;0.00;0.00;0.62;0.00;0.00;0.62;7.10;5.97;;;27.10;35.00;;;;;;2265880;61;20415;-62
2021/09/03 10:48:32;0.00;0.00;0.62;0.00;0.00;0.62;6.43;5.83;;;27.10;35.00;;;;;;2266032;61;20430;-62
2021/09/03 10:51:35;0.00;0.00;0.62;0.00;0.00;0.62;6.87;6.20;;;27.10;35.00;;;;;;2264710;61;20481;-62
2021/09/03 10:54:20;0.00;0.00;0.62;0.00;0.00;0.62;6.73;5.80;;;27.10;34.90;;;;;;2265867;61;20365;-62